createdAt,value
2023-02-09T00:01:26.172Z,20.77
2023-02-09T00:03:54.321Z,25.97
2023-02-09T00:06:26.256Z,24.47
2023-02-09T00:08:54.638Z,22.93
2023-02-09T00:11:44.283Z,27.97
2023-02-09T00:14:11.597Z,21.37
2023-02-09T00:16:39.266Z,25.53
2023-02-09T00:19:06.962Z,22.87
2023-02-09T00:21:37.366Z,25.70
2023-02-09T00:24:06.234Z,31.77
2023-02-09T00:26:34.274Z,32.63
2023-02-09T00:29:01.889Z,23.27
2023-02-09T00:31:29.993Z,23.60
2023-02-09T00:33:57.798Z,25.70
2023-02-09T00:36:25.424Z,23.43
2023-02-09T00:38:54.447Z,19.63
2023-02-09T00:41:42.795Z,21.63
2023-02-09T00:44:10.770Z,21.07
2023-02-09T00:46:39.932Z,21.53
2023-02-09T00:49:07.713Z,30.47
2023-02-09T00:51:35.394Z,22.37
2023-02-09T00:54:04.648Z,22.57
2023-02-09T00:56:32.285Z,25.00
2023-02-09T00:58:59.908Z,20.77
2023-02-09T01:01:27.641Z,22.37
2023-02-09T01:03:55.338Z,23.40
2023-02-09T01:06:23.112Z,20.40
2023-02-09T01:08:51.177Z,27.00
2023-02-09T01:11:20.232Z,31.93
2023-02-09T01:13:47.968Z,29.10
2023-02-09T01:16:18.590Z,26.33
2023-02-09T01:18:46.453Z,26.10
2023-02-09T01:21:15.852Z,26.57
2023-02-09T01:23:43.736Z,22.73
2023-02-09T01:26:12.855Z,23.93
2023-02-09T01:28:42.248Z,27.63
2023-02-09T01:31:21.212Z,24.03
2023-02-09T01:33:49.286Z,19.83
2023-02-09T01:36:17.096Z,22.30
2023-02-09T01:38:44.752Z,25.67
2023-02-09T01:41:12.917Z,25.23
2023-02-09T01:43:59.466Z,24.47
2023-02-09T01:46:29.236Z,27.47
2023-02-09T01:49:03.776Z,29.83
2023-02-09T01:51:34.162Z,25.10
2023-02-09T01:54:06.175Z,26.03
2023-02-09T01:56:34.239Z,27.33
2023-02-09T01:59:03.217Z,27.50
2023-02-09T02:01:31.267Z,25.20
2023-02-09T02:03:58.916Z,25.80
2023-02-09T02:06:27.059Z,29.00
2023-02-09T02:08:59.763Z,27.23
2023-02-09T02:11:29.782Z,23.73
2023-02-09T02:13:57.926Z,25.37
2023-02-09T02:16:54.774Z,22.03
2023-02-09T02:19:48.108Z,27.47
2023-02-09T02:22:48.055Z,23.17
2023-02-09T02:25:54.040Z,22.60
2023-02-09T02:28:41.566Z,21.50
2023-02-09T02:31:47.958Z,25.80
2023-02-09T02:34:21.081Z,23.93
2023-02-09T02:36:59.220Z,24.53
2023-02-09T02:39:32.517Z,24.77
2023-02-09T02:42:21.210Z,23.47
2023-02-09T02:45:02.851Z,20.83
2023-02-09T02:47:35.685Z,24.27
2023-02-09T02:50:09.318Z,23.83
2023-02-09T02:52:39.138Z,27.33
2023-02-09T02:55:10.807Z,29.17
2023-02-09T02:57:44.295Z,26.70
2023-02-09T03:00:15.465Z,28.73
2023-02-09T03:02:48.064Z,24.93
2023-02-09T03:05:17.529Z,28.43
2023-02-09T03:07:45.438Z,28.47
2023-02-09T03:10:28.470Z,26.40
2023-02-09T03:13:07.874Z,23.57
2023-02-09T03:15:49.563Z,25.63
2023-02-09T03:18:27.203Z,22.07
2023-02-09T03:21:00.072Z,25.53
2023-02-09T03:23:33.915Z,24.47
2023-02-09T03:26:08.761Z,29.60
2023-02-09T03:28:40.534Z,22.83
2023-02-09T03:31:10.163Z,22.63
2023-02-09T03:33:40.419Z,25.83
2023-02-09T03:36:13.653Z,24.00
2023-02-09T03:38:41.229Z,25.33
2023-02-09T03:41:08.883Z,26.30
2023-02-09T03:43:54.276Z,26.60
2023-02-09T03:46:22.125Z,28.53
2023-02-09T03:48:51.060Z,27.07
2023-02-09T03:51:18.943Z,22.13
2023-02-09T03:53:47.244Z,23.40
2023-02-09T03:56:14.901Z,25.53
2023-02-09T03:58:42.582Z,22.10
2023-02-09T04:01:12.063Z,23.33
2023-02-09T04:03:40.701Z,24.17
2023-02-09T04:06:10.981Z,29.53
2023-02-09T04:08:38.831Z,23.90
2023-02-09T04:11:06.553Z,27.77
2023-02-09T04:13:34.298Z,21.80
2023-02-09T04:16:01.956Z,20.50
2023-02-09T04:18:29.683Z,26.13
2023-02-09T04:20:57.353Z,25.10
2023-02-09T04:23:26.366Z,22.97
2023-02-09T04:25:54.010Z,20.60
2023-02-09T04:28:21.773Z,26.47
2023-02-09T04:30:52.987Z,22.63
2023-02-09T04:33:20.999Z,20.03
2023-02-09T04:35:48.966Z,19.23
2023-02-09T04:38:19.341Z,25.37
2023-02-09T04:40:48.556Z,23.13
2023-02-09T04:43:16.252Z,23.60
2023-02-09T04:45:44.423Z,25.57
2023-02-09T04:48:15.153Z,25.23
2023-02-09T04:50:43.637Z,25.37
2023-02-09T04:53:11.686Z,23.83
2023-02-09T04:55:39.609Z,23.20
2023-02-09T04:58:26.104Z,20.67
2023-02-09T05:00:55.900Z,22.60
2023-02-09T05:03:24.731Z,22.90
2023-02-09T05:05:55.720Z,22.73
2023-02-09T05:08:23.837Z,22.80
2023-02-09T05:10:52.101Z,21.33
2023-02-09T05:13:22.230Z,24.80
2023-02-09T05:15:49.919Z,22.27
2023-02-09T05:18:18.129Z,22.57
2023-02-09T05:20:46.998Z,21.27
2023-02-09T05:23:15.558Z,21.17
2023-02-09T05:25:43.240Z,18.57
2023-02-09T05:28:10.996Z,24.80
2023-02-09T05:30:40.279Z,21.70
2023-02-09T05:33:08.052Z,24.10
2023-02-09T05:35:35.800Z,17.73
2023-02-09T05:38:04.615Z,21.10
2023-02-09T05:40:32.376Z,23.13
2023-02-09T05:43:00.287Z,21.33
2023-02-09T05:45:28.056Z,27.13
2023-02-09T05:47:57.082Z,23.90
2023-02-09T05:50:24.823Z,19.80
2023-02-09T05:52:52.448Z,20.63
2023-02-09T05:55:20.286Z,23.73
2023-02-09T05:57:48.067Z,25.07
2023-02-09T06:00:16.742Z,26.27
2023-02-09T06:02:44.544Z,21.93
2023-02-09T06:05:13.564Z,23.03
2023-02-09T06:07:41.176Z,30.80
2023-02-09T06:10:09.342Z,29.17
2023-02-09T06:12:37.015Z,25.23
2023-02-09T06:15:05.433Z,24.23
2023-02-09T06:17:33.160Z,22.17
2023-02-09T06:20:00.909Z,26.20
2023-02-09T06:22:31.731Z,24.27
2023-02-09T06:24:59.530Z,25.67
2023-02-09T06:27:27.245Z,30.97
2023-02-09T06:29:54.935Z,28.47
2023-02-09T06:32:22.610Z,25.40
2023-02-09T06:34:50.411Z,31.17
2023-02-09T06:37:18.070Z,31.67
2023-02-09T06:39:47.122Z,28.63
2023-02-09T06:42:14.806Z,30.03
2023-02-09T06:44:42.458Z,28.77
2023-02-09T06:47:10.220Z,36.17
2023-02-09T06:49:37.983Z,30.27
2023-02-09T06:52:06.249Z,26.30
2023-02-09T06:54:33.905Z,31.53
2023-02-09T06:57:02.909Z,25.40
2023-02-09T06:59:30.572Z,32.47
2023-02-09T07:01:58.310Z,35.90
2023-02-09T07:04:26.243Z,28.93
2023-02-09T07:06:53.879Z,32.73
2023-02-09T07:09:21.529Z,28.07
2023-02-09T07:11:49.254Z,34.13
2023-02-09T07:14:18.224Z,33.60
2023-02-09T07:16:45.849Z,33.50
2023-02-09T07:19:13.941Z,32.33
2023-02-09T07:21:41.677Z,30.40
2023-02-09T07:24:09.302Z,32.23
2023-02-09T07:26:37.017Z,39.93
2023-02-09T07:29:04.678Z,32.93
2023-02-09T07:31:34.198Z,31.47
2023-02-09T07:34:02.781Z,33.07
2023-02-09T07:36:30.438Z,32.37
2023-02-09T07:38:59.480Z,26.03
2023-02-09T07:41:28.615Z,26.13
2023-02-09T07:43:57.356Z,34.27
2023-02-09T07:46:25.529Z,36.73
2023-02-09T07:48:54.694Z,37.13
2023-02-09T07:51:25.363Z,30.90
2023-02-09T07:53:53.827Z,36.70
2023-02-09T07:56:21.596Z,25.80
2023-02-09T07:58:49.558Z,29.70
2023-02-09T08:01:17.763Z,26.53
2023-02-09T08:03:47.079Z,30.20
2023-02-09T08:06:21.815Z,28.50
2023-02-09T08:08:52.281Z,33.23
2023-02-09T08:11:22.747Z,31.57
2023-02-09T08:13:51.974Z,33.00
2023-02-09T08:16:25.704Z,43.83
2023-02-09T08:18:56.704Z,29.37
2023-02-09T08:21:27.288Z,27.10
2023-02-09T08:23:58.771Z,24.67
2023-02-09T08:26:26.935Z,22.10
2023-02-09T08:28:55.203Z,27.03
2023-02-09T08:31:23.074Z,25.50
2023-02-09T08:33:52.605Z,26.13
2023-02-09T08:36:21.054Z,28.30
2023-02-09T08:38:50.265Z,25.70
2023-02-09T08:41:18.659Z,27.47
2023-02-09T08:43:48.942Z,25.87
2023-02-09T08:46:16.996Z,25.27
2023-02-09T08:48:47.094Z,24.37
2023-02-09T08:51:16.391Z,24.80
2023-02-09T08:53:46.113Z,26.53
2023-02-09T08:56:15.154Z,23.50
2023-02-09T08:58:42.832Z,23.20
2023-02-09T09:01:10.531Z,26.33
2023-02-09T09:03:38.315Z,26.33
2023-02-09T09:06:07.869Z,24.40
2023-02-09T09:08:37.683Z,27.83
2023-02-09T09:11:06.807Z,29.97
2023-02-09T09:13:35.909Z,26.83
2023-02-09T09:16:05.211Z,26.43
2023-02-09T09:18:33.046Z,25.63
2023-02-09T09:21:00.841Z,24.80
2023-02-09T09:23:28.537Z,29.10
2023-02-09T09:26:01.459Z,26.23
2023-02-09T09:28:29.238Z,26.87
2023-02-09T09:30:59.894Z,23.80
2023-02-09T09:33:27.760Z,22.57
2023-02-09T09:35:55.489Z,22.43
2023-02-09T09:38:23.149Z,21.43
2023-02-09T09:40:50.832Z,21.93
2023-02-09T09:43:24.925Z,23.80
2023-02-09T09:45:52.802Z,23.03
2023-02-09T09:48:25.332Z,24.50
2023-02-09T09:50:56.557Z,22.47
2023-02-09T09:53:33.333Z,22.97
2023-02-09T09:56:05.158Z,21.90
2023-02-09T09:58:34.256Z,25.67
2023-02-09T10:01:02.425Z,21.53
2023-02-09T10:03:31.525Z,24.10
2023-02-09T10:06:04.098Z,31.27
2023-02-09T10:08:35.925Z,26.30
2023-02-09T10:11:08.049Z,29.73
2023-02-09T10:13:39.607Z,24.23
2023-02-09T10:16:17.063Z,27.77
2023-02-09T10:18:46.801Z,28.60
2023-02-09T10:21:16.593Z,29.33
2023-02-09T10:23:46.526Z,28.43
2023-02-09T10:26:32.789Z,28.10
2023-02-09T10:29:08.112Z,31.87
2023-02-09T10:31:39.395Z,32.33
2023-02-09T10:34:14.832Z,31.13
2023-02-09T10:36:49.844Z,34.17
2023-02-09T10:39:20.513Z,34.43
2023-02-09T10:41:51.233Z,44.63
2023-02-09T10:44:23.481Z,43.47
2023-02-09T10:47:08.612Z,39.27
2023-02-09T10:49:39.905Z,34.97
2023-02-09T10:52:15.189Z,32.30
2023-02-09T10:54:44.558Z,30.35
2023-02-09T10:57:24.353Z,28.77
2023-02-09T10:59:53.290Z,28.58
2023-02-09T11:02:35.959Z,30.98
2023-02-09T11:05:25.425Z,27.37
2023-02-09T11:07:57.430Z,30.60
2023-02-09T11:10:27.009Z,33.97
2023-02-09T11:12:54.616Z,28.13
2023-02-09T11:15:27.123Z,31.00
2023-02-09T11:18:03.014Z,34.97
2023-02-09T11:20:36.577Z,31.63
2023-02-09T11:23:26.032Z,27.13
2023-02-09T11:26:01.112Z,30.47
2023-02-09T11:28:51.021Z,34.30
2023-02-09T11:31:32.399Z,31.77
2023-02-09T11:34:13.154Z,33.43
2023-02-09T11:36:49.728Z,36.50
2023-02-09T11:39:25.859Z,30.47
2023-02-09T11:42:18.172Z,33.20
2023-02-09T11:44:52.730Z,33.27
2023-02-09T11:47:27.105Z,34.07
2023-02-09T11:49:57.555Z,36.00
2023-02-09T11:52:32.693Z,28.90
2023-02-09T11:55:03.646Z,30.83
2023-02-09T11:57:37.083Z,27.87
2023-02-09T12:00:07.930Z,28.13
2023-02-09T12:02:47.652Z,29.83
2023-02-09T12:05:19.651Z,30.90
2023-02-09T12:08:13.689Z,28.97
2023-02-09T12:10:48.062Z,27.97
2023-02-09T12:13:31.344Z,29.95
2023-02-09T12:16:02.976Z,27.57
2023-02-09T12:18:33.176Z,30.37
2023-02-09T12:21:02.352Z,29.63
2023-02-09T12:23:34.036Z,31.57
2023-02-09T12:26:03.073Z,29.80
2023-02-09T12:28:42.284Z,31.87
2023-02-09T12:31:13.865Z,35.07
2023-02-09T12:34:10.608Z,30.77
2023-02-09T12:36:38.404Z,30.43
2023-02-09T12:39:25.284Z,30.50
2023-02-09T12:42:29.394Z,30.40
2023-02-09T12:44:59.197Z,31.13
2023-02-09T12:47:58.508Z,32.17
2023-02-09T12:50:47.154Z,31.07
2023-02-09T12:53:47.845Z,31.67
2023-02-09T12:56:34.067Z,34.17
2023-02-09T12:59:16.165Z,34.77
2023-02-09T13:02:24.034Z,34.97
2023-02-09T13:05:13.970Z,29.23
2023-02-09T13:07:49.501Z,27.43
2023-02-09T13:10:26.754Z,29.00
2023-02-09T13:13:04.126Z,30.63
2023-02-09T13:15:44.808Z,26.08
2023-02-09T13:18:21.077Z,30.30
2023-02-09T13:21:13.739Z,28.55
2023-02-09T13:23:56.436Z,28.27
2023-02-09T13:26:26.657Z,29.90
2023-02-09T13:29:19.940Z,25.77
2023-02-09T13:31:55.851Z,28.27
2023-02-09T13:34:33.053Z,27.45
2023-02-09T13:37:14.523Z,28.13
2023-02-09T13:39:44.174Z,28.27
2023-02-09T13:42:20.356Z,31.00
2023-02-09T13:44:52.635Z,32.33
2023-02-09T13:47:20.427Z,29.13
2023-02-09T13:49:59.715Z,30.70
2023-02-09T13:52:32.846Z,33.60
2023-02-09T13:55:12.620Z,35.53
2023-02-09T13:57:43.322Z,32.23
2023-02-09T14:00:23.448Z,30.63
2023-02-09T14:02:54.426Z,34.27
2023-02-09T14:05:31.500Z,33.63
2023-02-09T14:08:00.066Z,31.67
2023-02-09T14:10:30.079Z,31.87
2023-02-09T14:13:01.814Z,34.63
2023-02-09T14:15:54.228Z,33.30
2023-02-09T14:18:34.432Z,36.87
2023-02-09T14:21:04.741Z,34.97
2023-02-09T14:23:35.217Z,36.87
2023-02-09T14:26:05.872Z,35.97
2023-02-09T14:28:35.118Z,33.90
2023-02-09T14:31:04.782Z,35.13
2023-02-09T14:33:35.796Z,31.50
2023-02-09T14:36:04.681Z,30.53
2023-02-09T14:38:37.744Z,33.70
2023-02-09T14:41:31.171Z,33.97
2023-02-09T14:44:04.545Z,33.80
2023-02-09T14:49:26.582Z,34.87
2023-02-09T14:52:03.024Z,31.77
2023-02-09T14:54:33.901Z,34.03
2023-02-09T14:57:03.751Z,37.83
2023-02-09T14:59:31.816Z,34.13
2023-02-09T15:01:59.613Z,34.27
2023-02-09T15:04:28.618Z,30.10
2023-02-09T15:07:04.484Z,32.83
2023-02-09T15:09:36.820Z,32.70
2023-02-09T15:12:07.636Z,31.77
2023-02-09T15:14:45.000Z,35.43
2023-02-09T15:17:16.129Z,34.23
2023-02-09T15:19:46.056Z,29.83
2023-02-09T15:22:16.142Z,35.03
2023-02-09T15:24:44.519Z,31.43
2023-02-09T15:27:19.749Z,31.70
2023-02-09T15:29:47.993Z,32.77
2023-02-09T15:32:17.322Z,33.07
2023-02-09T15:34:47.261Z,34.93
2023-02-09T15:37:21.421Z,37.30
2023-02-09T15:39:50.169Z,40.77
2023-02-09T15:42:51.498Z,37.43
2023-02-09T15:45:34.952Z,38.00
2023-02-09T15:48:02.737Z,34.13
2023-02-09T15:50:34.307Z,37.17
2023-02-09T15:53:04.155Z,38.10
2023-02-09T15:55:32.674Z,35.80
2023-02-09T15:58:00.629Z,42.73
2023-02-09T16:00:30.079Z,36.77
2023-02-09T16:03:00.079Z,37.43
2023-02-09T16:05:30.017Z,37.17
2023-02-09T16:08:00.550Z,35.20
2023-02-09T16:10:30.893Z,42.50
2023-02-09T16:12:58.695Z,35.40
2023-02-09T16:15:27.713Z,36.40
2023-02-09T16:17:55.364Z,33.20
2023-02-09T16:20:25.804Z,42.70
2023-02-09T16:22:55.662Z,35.60
2023-02-09T16:25:26.852Z,40.17
2023-02-09T16:27:56.044Z,40.37
2023-02-09T16:30:26.177Z,34.13
2023-02-09T16:32:54.574Z,37.00
2023-02-09T16:35:24.133Z,37.77
2023-02-09T16:37:56.104Z,37.07
2023-02-09T16:40:27.952Z,42.80
2023-02-09T16:42:57.747Z,34.37
2023-02-09T16:45:26.974Z,38.93
2023-02-09T16:47:59.172Z,36.47
2023-02-09T16:50:33.072Z,36.60
2023-02-09T16:53:03.912Z,41.33
2023-02-09T16:55:35.475Z,40.77
2023-02-09T16:58:05.281Z,37.13
2023-02-09T17:00:34.763Z,45.67
2023-02-09T17:03:09.516Z,46.93
2023-02-09T17:05:38.049Z,58.87
2023-02-09T17:08:08.794Z,47.93
2023-02-09T17:10:37.813Z,53.50
2023-02-09T17:13:05.597Z,46.13
2023-02-09T17:15:39.351Z,48.27
2023-02-09T17:18:10.080Z,45.53
2023-02-09T17:20:41.830Z,42.07
2023-02-09T17:23:14.265Z,44.93
2023-02-09T17:25:44.244Z,53.57
2023-02-09T17:28:12.445Z,49.87
2023-02-09T17:30:41.023Z,49.80
2023-02-09T17:33:18.301Z,42.77
2023-02-09T17:36:13.968Z,48.27
2023-02-09T17:38:35.950Z,62.30
2023-02-09T17:41:07.674Z,51.57
2023-02-09T17:43:35.427Z,39.80
2023-02-09T17:46:05.183Z,50.70
2023-02-09T17:48:32.983Z,59.10
2023-02-09T17:51:02.670Z,51.70
2023-02-09T17:53:35.300Z,57.80
2023-02-09T17:56:03.311Z,57.63
2023-02-09T17:58:32.405Z,56.03
2023-02-09T18:01:00.145Z,55.33
2023-02-09T18:03:28.005Z,59.40
2023-02-09T18:05:58.411Z,54.47
2023-02-09T18:08:27.231Z,54.43
2023-02-09T18:10:56.922Z,55.80
2023-02-09T18:13:26.958Z,59.67
2023-02-09T18:15:56.239Z,60.73
2023-02-09T18:18:24.472Z,71.97
2023-02-09T18:20:52.447Z,58.20
2023-02-09T18:23:20.175Z,59.63
2023-02-09T18:25:49.639Z,59.23
2023-02-09T18:28:17.653Z,56.47
2023-02-09T18:30:46.262Z,59.27
2023-02-09T18:33:16.430Z,58.73
2023-02-09T18:35:45.725Z,65.83
2023-02-09T18:38:15.778Z,57.57
2023-02-09T18:40:43.500Z,62.90
2023-02-09T18:43:14.532Z,52.40
2023-02-09T18:45:42.198Z,66.03
2023-02-09T18:48:11.685Z,60.50
2023-02-09T18:50:40.804Z,56.80
2023-02-09T18:53:08.762Z,49.83
2023-02-09T18:55:36.537Z,53.27
2023-02-09T18:58:06.175Z,53.37
2023-02-09T19:00:34.184Z,57.67
2023-02-09T19:03:02.209Z,50.33
2023-02-09T19:05:32.069Z,62.43
2023-02-09T19:08:01.757Z,54.33
2023-02-09T19:10:32.949Z,52.40
2023-02-09T19:13:01.887Z,61.23
2023-02-09T19:15:30.253Z,55.97
2023-02-09T19:17:57.974Z,55.03
2023-02-09T19:20:27.568Z,53.10
2023-02-09T19:22:56.114Z,53.50
2023-02-09T19:25:26.792Z,52.20
2023-02-09T19:27:55.160Z,54.23
2023-02-09T19:30:26.382Z,50.83
2023-02-09T19:32:55.259Z,62.70
2023-02-09T19:35:23.331Z,58.87
2023-02-09T19:37:52.493Z,55.13
2023-02-09T19:40:28.104Z,51.13
2023-02-09T19:42:57.533Z,53.20
2023-02-09T19:45:25.251Z,53.13
2023-02-09T19:47:52.910Z,53.90
2023-02-09T19:50:20.783Z,51.60
2023-02-09T19:52:50.228Z,52.60
2023-02-09T19:55:18.022Z,66.30
2023-02-09T19:57:45.740Z,58.03
2023-02-09T20:00:18.067Z,58.30
2023-02-09T20:02:46.038Z,52.73
2023-02-09T20:05:14.058Z,52.63
2023-02-09T20:07:41.726Z,56.87
2023-02-09T20:10:10.491Z,51.07
2023-02-09T20:12:38.208Z,46.20
2023-02-09T20:15:06.282Z,52.87
2023-02-09T20:17:35.389Z,48.97
2023-02-09T20:20:03.017Z,48.33
2023-02-09T20:22:30.767Z,47.70
2023-02-09T20:24:58.403Z,50.53
2023-02-09T20:27:26.091Z,45.43
2023-02-09T20:29:57.194Z,52.33
2023-02-09T20:32:24.852Z,52.27
2023-02-09T20:34:53.798Z,50.10
2023-02-09T20:37:21.479Z,49.00
2023-02-09T20:39:49.131Z,49.63
2023-02-09T20:42:34.902Z,54.27
2023-02-09T20:45:20.304Z,52.87
2023-02-09T20:47:48.085Z,51.40
2023-02-09T20:50:17.850Z,52.80
2023-02-09T20:52:46.035Z,51.43
2023-02-09T20:55:14.222Z,51.97
2023-02-09T20:57:42.466Z,47.43
2023-02-09T21:00:11.248Z,48.47
2023-02-09T21:02:39.173Z,51.03
2023-02-09T21:05:07.278Z,55.80
2023-02-09T21:07:36.624Z,48.60
2023-02-09T21:10:04.688Z,46.13
2023-02-09T21:12:32.372Z,47.20
2023-02-09T21:15:00.097Z,51.07
2023-02-09T21:17:27.813Z,52.77
2023-02-09T21:19:55.541Z,51.00
2023-02-09T21:22:23.288Z,52.40
2023-02-09T21:24:52.371Z,45.23
2023-02-09T21:27:20.488Z,52.80
2023-02-09T21:29:48.460Z,44.43
2023-02-09T21:32:16.348Z,48.60
2023-02-09T21:34:44.199Z,53.10
2023-02-09T21:37:14.128Z,50.57
2023-02-09T21:39:42.383Z,52.47
2023-02-09T21:42:30.286Z,52.57
2023-02-09T21:44:59.811Z,47.93
2023-02-09T21:47:28.589Z,47.07
2023-02-09T21:49:57.271Z,44.73
2023-02-09T21:52:25.770Z,43.57
2023-02-09T21:54:54.725Z,53.93
2023-02-09T21:57:24.149Z,48.37
2023-02-09T21:59:52.096Z,45.87
2023-02-09T22:02:21.274Z,47.53
2023-02-09T22:04:49.712Z,40.57
2023-02-09T22:07:17.806Z,41.10
2023-02-09T22:09:45.516Z,38.10
2023-02-09T22:12:13.301Z,41.00
2023-02-09T22:14:42.526Z,44.70
2023-02-09T22:17:10.550Z,42.37
2023-02-09T22:19:38.976Z,44.73
2023-02-09T22:22:06.944Z,42.33
2023-02-09T22:24:34.889Z,36.20
2023-02-09T22:27:03.485Z,41.00
2023-02-09T22:29:33.323Z,36.60
2023-02-09T22:32:02.566Z,41.67
2023-02-09T22:34:30.315Z,41.87
2023-02-09T22:36:58.132Z,42.47
2023-02-09T22:39:25.977Z,40.83
2023-02-09T22:41:58.058Z,44.30
2023-02-09T22:44:28.005Z,38.17
2023-02-09T22:46:55.894Z,39.67
2023-02-09T22:49:25.102Z,39.50
2023-02-09T22:51:53.195Z,39.27
2023-02-09T22:54:21.316Z,41.37
2023-02-09T22:56:49.124Z,39.07
2023-02-09T22:59:17.122Z,41.03
2023-02-09T23:01:45.416Z,39.70
2023-02-09T23:04:13.300Z,35.17
2023-02-09T23:06:42.548Z,34.77
2023-02-09T23:09:10.303Z,38.70
2023-02-09T23:11:38.144Z,35.80
2023-02-09T23:14:10.224Z,41.23
2023-02-09T23:16:39.974Z,41.77
2023-02-09T23:19:11.029Z,38.63
2023-02-09T23:21:42.082Z,37.87
2023-02-09T23:24:12.716Z,36.57
2023-02-09T23:26:40.879Z,40.17
2023-02-09T23:29:10.891Z,37.37
2023-02-09T23:31:39.052Z,35.73
2023-02-09T23:34:06.750Z,37.57
2023-02-09T23:36:35.984Z,38.57
2023-02-09T23:39:07.436Z,36.37
2023-02-09T23:41:36.756Z,36.57
2023-02-09T23:44:04.844Z,35.00
2023-02-09T23:46:32.947Z,40.60
2023-02-09T23:49:01.599Z,42.70
2023-02-09T23:51:31.422Z,35.43
2023-02-09T23:54:01.952Z,40.07
2023-02-09T23:56:31.821Z,38.23
2023-02-09T23:59:00.971Z,34.27
